LEBL/BCN METAR and TAF weather

Enter ICAO airport designator
Station Type Date Time Source
LEBL METAR 2019/12/14 19:30 UTC NOAA

LEBL 141930Z 30005KT 260V340 CAVOK 12/07 Q1015 NOSIG


Station Type Date Time Source
LEBL Decoded METAR 2019/12/14 19:30 UTC NOAA

Barcelona / Aeropuerto, Spain (LEBL) 41-17N 002-04E 6M
Dec 14, 2019 - 02:30 PM EST / 2019.12.14 1930 UTC
Wind: from the WNW (300 degrees) at 6 MPH (5 KT) (direction variable):0
Visibility: greater than 7 mile(s):0
Temperature: 53 F (12 C)
Dew Point: 44 F (7 C)
Relative Humidity: 71%
Pressure (altimeter): 29.97 in. Hg (1015 hPa)
ob: LEBL 141930Z 30005KT 260V340 CAVOK 12/07 Q1015 NOSIG
cycle: 19

Station Type Date Time Source
LEBL TAF 2019/12/14 18:27 UTC NOAA

TAF LEBL 141700Z 1418/1518 32008KT 9999 FEW030 TX17/1513Z TN10/1506Z
BECMG 1419/1421 VRB04KT
BECMG 1511/1514 22010KT

Example: see airport list